createdAt,value
2023-05-22T00:00:16.768Z,9.90
2023-05-22T00:02:44.201Z,9.20
2023-05-22T00:05:13.494Z,8.57
2023-05-22T00:07:42.088Z,11.13
2023-05-22T00:10:09.389Z,8.88
2023-05-22T00:12:36.284Z,9.55
2023-05-22T00:15:04.197Z,8.63
2023-05-22T00:17:31.292Z,9.32
2023-05-22T00:20:09.439Z,9.60
2023-05-22T00:22:37.026Z,10.20
2023-05-22T00:25:04.627Z,10.18
2023-05-22T00:27:31.555Z,8.55
2023-05-22T00:29:59.102Z,9.07
2023-05-22T00:32:26.496Z,9.27
2023-05-22T00:34:54.409Z,9.60
2023-05-22T00:37:21.301Z,13.05
2023-05-22T00:39:48.893Z,12.23
2023-05-22T00:42:15.977Z,12.23
2023-05-22T00:44:43.103Z,13.33
2023-05-22T00:47:09.959Z,13.05
2023-05-22T00:49:36.925Z,15.10
2023-05-22T00:52:03.915Z,12.20
2023-05-22T00:54:32.164Z,11.98
2023-05-22T00:57:01.589Z,12.37
2023-05-22T00:59:29.516Z,14.10
2023-05-22T01:01:57.452Z,11.55
2023-05-22T01:04:25.642Z,13.63
2023-05-22T01:06:54.312Z,12.25
2023-05-22T01:09:21.232Z,12.90
2023-05-22T01:12:15.847Z,13.68
2023-05-22T01:15:00.952Z,13.55
2023-05-22T01:17:38.630Z,13.75
2023-05-22T01:20:31.320Z,11.52
2023-05-22T01:23:44.124Z,14.83
2023-05-22T01:26:16.557Z,12.77
2023-05-22T01:29:15.714Z,15.02
2023-05-22T01:31:46.013Z,13.55
2023-05-22T01:34:14.621Z,13.90
2023-05-22T01:36:44.894Z,14.97
2023-05-22T01:39:12.756Z,13.55
2023-05-22T01:41:41.044Z,12.80
2023-05-22T01:44:07.852Z,10.73
2023-05-22T01:46:34.790Z,12.10
2023-05-22T01:49:01.661Z,12.57
2023-05-22T01:51:43.414Z,13.98
2023-05-22T01:54:24.528Z,12.82
2023-05-22T01:57:02.955Z,11.60
2023-05-22T01:59:45.695Z,10.40
2023-05-22T02:02:16.063Z,9.97
2023-05-22T02:04:46.838Z,11.30
2023-05-22T02:07:15.224Z,12.00
2023-05-22T02:09:44.902Z,9.88
2023-05-22T02:12:13.353Z,11.20
2023-05-22T02:14:42.575Z,9.63
2023-05-22T02:17:09.392Z,10.70
2023-05-22T02:19:36.433Z,11.95
2023-05-22T02:22:04.217Z,9.80
2023-05-22T02:24:32.135Z,9.85
2023-05-22T02:26:58.920Z,11.80
2023-05-22T02:29:25.760Z,11.02
2023-05-22T02:31:54.810Z,9.98
2023-05-22T02:34:21.947Z,11.05
2023-05-22T02:36:51.192Z,10.88
2023-05-22T02:39:20.980Z,9.27
2023-05-22T02:41:47.771Z,10.02
2023-05-22T02:44:14.642Z,9.57
2023-05-22T02:46:41.586Z,10.32
2023-05-22T02:49:08.433Z,9.88
2023-05-22T02:51:35.938Z,10.80
2023-05-22T02:54:02.868Z,9.80
2023-05-22T02:56:30.030Z,8.45
2023-05-22T02:58:59.905Z,11.02
2023-05-22T03:01:26.752Z,11.15
2023-05-22T03:03:55.146Z,8.80
2023-05-22T03:06:23.380Z,8.98
2023-05-22T03:08:50.166Z,9.23
2023-05-22T03:11:17.016Z,11.00
2023-05-22T03:13:43.822Z,9.45
2023-05-22T03:16:10.737Z,9.70
2023-05-22T03:18:37.593Z,9.30
2023-05-22T03:21:04.674Z,10.45
2023-05-22T03:23:32.012Z,9.00
2023-05-22T03:25:58.847Z,9.38
2023-05-22T03:28:25.645Z,9.83
2023-05-22T03:30:52.709Z,9.45
2023-05-22T03:33:19.612Z,9.85
2023-05-22T03:35:46.493Z,10.88
2023-05-22T03:38:13.311Z,10.43
2023-05-22T03:40:40.337Z,9.37
2023-05-22T03:43:07.363Z,9.02
2023-05-22T03:45:34.247Z,12.75
2023-05-22T03:48:01.116Z,8.50
2023-05-22T03:50:27.901Z,9.57
2023-05-22T03:52:54.699Z,10.27
2023-05-22T03:55:21.626Z,9.45
2023-05-22T03:57:48.492Z,9.20
2023-05-22T04:00:17.224Z,10.45
2023-05-22T04:02:45.327Z,12.13
2023-05-22T04:05:12.456Z,9.37
2023-05-22T04:07:39.375Z,13.40
2023-05-22T04:10:06.944Z,10.35
2023-05-22T04:12:33.823Z,9.93
2023-05-22T04:15:00.657Z,10.75
2023-05-22T04:17:32.807Z,9.37
2023-05-22T04:20:00.643Z,10.45
2023-05-22T04:22:27.891Z,8.80
2023-05-22T04:24:54.780Z,11.55
2023-05-22T04:27:22.800Z,9.23
2023-05-22T04:29:50.577Z,8.37
2023-05-22T04:32:22.019Z,11.57
2023-05-22T04:34:52.669Z,10.25
2023-05-22T04:37:20.565Z,13.98
2023-05-22T04:39:47.742Z,10.00
2023-05-22T04:42:16.161Z,12.03
2023-05-22T04:44:43.761Z,12.60
2023-05-22T04:47:15.054Z,13.43
2023-05-22T04:49:45.771Z,12.63
2023-05-22T04:52:12.623Z,13.38
2023-05-22T04:54:39.443Z,13.53
2023-05-22T04:57:06.486Z,12.80
2023-05-22T04:59:38.229Z,13.23
2023-05-22T05:02:06.130Z,11.88
2023-05-22T05:04:33.843Z,14.93
2023-05-22T05:07:00.724Z,12.87
2023-05-22T05:09:27.546Z,15.90
2023-05-22T05:11:55.396Z,15.27
2023-05-22T05:14:22.281Z,13.75
2023-05-22T05:16:49.126Z,14.50
2023-05-22T05:19:16.845Z,12.80
2023-05-22T05:21:43.906Z,13.40
2023-05-22T05:24:10.848Z,14.13
2023-05-22T05:26:37.669Z,13.52
2023-05-22T05:29:04.709Z,15.05
2023-05-22T05:31:33.093Z,12.87
2023-05-22T05:34:00.030Z,13.80
2023-05-22T05:36:27.268Z,13.43
2023-05-22T05:38:54.517Z,13.45
2023-05-22T05:41:21.772Z,13.45
2023-05-22T05:43:48.773Z,15.07
2023-05-22T05:46:15.848Z,12.20
2023-05-22T05:48:42.894Z,14.43
2023-05-22T05:51:10.471Z,13.95
2023-05-22T05:53:37.429Z,14.30
2023-05-22T05:56:05.164Z,12.93
2023-05-22T05:58:32.195Z,12.30
2023-05-22T06:00:59.146Z,12.20
2023-05-22T06:03:26.259Z,11.82
2023-05-22T06:05:53.398Z,12.95
2023-05-22T06:08:22.022Z,13.57
2023-05-22T06:10:49.039Z,11.13
2023-05-22T06:13:16.058Z,12.82
2023-05-22T06:15:43.037Z,10.90
2023-05-22T06:18:10.124Z,11.30
2023-05-22T06:20:37.372Z,11.00
2023-05-22T06:23:04.485Z,11.43
2023-05-22T06:25:31.516Z,12.82
2023-05-22T06:27:58.516Z,10.77
2023-05-22T06:30:39.039Z,12.77
2023-05-22T06:33:10.695Z,12.20
2023-05-22T06:35:38.177Z,12.55
2023-05-22T06:38:05.182Z,11.15
2023-05-22T06:40:32.162Z,12.48
2023-05-22T06:42:59.821Z,11.65
2023-05-22T06:45:26.721Z,9.97
2023-05-22T06:47:54.477Z,12.05
2023-05-22T06:50:22.347Z,11.82
2023-05-22T06:52:49.642Z,10.98
2023-05-22T06:55:16.991Z,10.27
2023-05-22T06:57:44.335Z,11.43
2023-05-22T07:00:13.007Z,12.20
2023-05-22T07:02:40.340Z,9.88
2023-05-22T07:05:07.620Z,11.20
2023-05-22T07:07:34.911Z,9.82
2023-05-22T07:10:01.965Z,10.93
2023-05-22T07:12:29.820Z,9.10
2023-05-22T07:14:58.003Z,9.63
2023-05-22T07:17:24.993Z,10.38
2023-05-22T07:19:52.147Z,9.95
2023-05-22T07:22:19.262Z,9.20
2023-05-22T07:24:47.552Z,11.07
2023-05-22T07:27:15.089Z,9.95
2023-05-22T07:29:42.050Z,10.48
2023-05-22T07:32:09.177Z,9.85
2023-05-22T07:34:36.226Z,8.90
2023-05-22T07:37:12.726Z,8.13
2023-05-22T07:39:39.613Z,8.45
2023-05-22T07:42:07.054Z,9.10
2023-05-22T07:44:34.555Z,9.02
2023-05-22T07:47:01.517Z,9.80
2023-05-22T07:49:28.527Z,9.30
2023-05-22T07:51:55.590Z,11.05
2023-05-22T07:54:22.770Z,10.38
2023-05-22T07:56:49.741Z,10.25
2023-05-22T07:59:19.839Z,10.40
2023-05-22T08:01:46.830Z,8.65
2023-05-22T08:04:13.977Z,9.82
2023-05-22T08:06:41.818Z,11.43
2023-05-22T08:09:09.325Z,10.15
2023-05-22T08:11:39.736Z,9.63
2023-05-22T08:14:06.947Z,9.77
2023-05-22T08:16:34.337Z,10.40
2023-05-22T08:19:01.943Z,10.00
2023-05-22T08:21:29.051Z,9.68
2023-05-22T08:23:55.985Z,9.07
2023-05-22T08:26:23.379Z,9.95
2023-05-22T08:28:50.184Z,9.52
2023-05-22T08:31:17.251Z,8.63
2023-05-22T08:33:44.148Z,10.45
2023-05-22T08:36:11.023Z,9.00
2023-05-22T08:38:37.828Z,9.52
2023-05-22T08:41:06.913Z,10.20
2023-05-22T08:43:33.847Z,7.65
2023-05-22T08:46:04.596Z,8.80
2023-05-22T08:48:33.305Z,8.77
2023-05-22T08:51:05.434Z,9.25
2023-05-22T08:53:36.222Z,9.82
2023-05-22T08:56:07.653Z,10.82
2023-05-22T08:58:38.431Z,10.30
2023-05-22T09:01:06.878Z,10.07
2023-05-22T09:03:36.191Z,9.52
2023-05-22T09:06:03.598Z,9.80
2023-05-22T09:08:30.903Z,9.05
2023-05-22T09:10:57.797Z,8.73
2023-05-22T09:13:29.348Z,11.13
2023-05-22T09:16:15.152Z,10.10
2023-05-22T09:18:42.838Z,10.50
2023-05-22T09:21:25.964Z,9.95
2023-05-22T09:24:01.442Z,9.77
2023-05-22T09:26:33.145Z,11.30
2023-05-22T09:29:00.480Z,10.85
2023-05-22T09:31:29.364Z,11.57
2023-05-22T09:33:56.539Z,10.60
2023-05-22T09:36:31.627Z,9.63
2023-05-22T09:39:00.944Z,10.67
2023-05-22T09:41:30.685Z,10.98
2023-05-22T09:43:58.700Z,12.30
2023-05-22T09:46:26.793Z,10.52
2023-05-22T09:48:54.574Z,10.75
2023-05-22T09:51:26.752Z,10.13
2023-05-22T09:54:00.803Z,10.63
2023-05-22T09:56:38.547Z,11.00
2023-05-22T09:59:09.961Z,8.65
2023-05-22T10:01:39.673Z,9.32
2023-05-22T10:04:12.309Z,8.27
2023-05-22T10:06:40.044Z,8.15
2023-05-22T10:09:18.857Z,8.32
2023-05-22T10:11:47.688Z,8.02
2023-05-22T10:14:15.316Z,9.38
2023-05-22T10:16:45.105Z,8.90
2023-05-22T10:19:13.289Z,7.38
2023-05-22T10:21:41.777Z,8.18
2023-05-22T10:24:09.933Z,7.82
2023-05-22T10:26:38.906Z,8.75
2023-05-22T10:29:12.275Z,7.00
2023-05-22T10:31:50.775Z,7.30
2023-05-22T10:34:40.656Z,9.88
2023-05-22T10:37:28.715Z,9.50
2023-05-22T10:40:05.074Z,8.38
2023-05-22T10:42:32.802Z,7.67
2023-05-22T10:45:04.497Z,7.80
2023-05-22T10:47:34.004Z,7.03
2023-05-22T10:50:08.968Z,7.55
2023-05-22T10:52:36.688Z,7.78
2023-05-22T10:55:10.520Z,8.13
2023-05-22T10:57:39.608Z,6.30
2023-05-22T11:00:16.035Z,7.30
2023-05-22T11:02:44.916Z,7.78
2023-05-22T11:05:25.732Z,7.25
2023-05-22T11:07:52.713Z,7.63
2023-05-22T11:10:52.122Z,7.75
2023-05-22T11:13:19.237Z,8.48
2023-05-22T11:15:47.003Z,9.35
2023-05-22T11:18:17.213Z,7.50
2023-05-22T11:20:44.619Z,7.87
2023-05-22T11:23:12.281Z,7.80
2023-05-22T11:25:41.505Z,6.45
2023-05-22T11:28:10.694Z,7.05
2023-05-22T11:30:38.777Z,7.55
2023-05-22T11:33:06.811Z,6.80
2023-05-22T11:35:34.278Z,6.95
2023-05-22T11:38:05.067Z,7.63
2023-05-22T11:40:32.052Z,6.53
2023-05-22T11:42:58.932Z,6.38
2023-05-22T11:45:27.398Z,6.40
2023-05-22T11:47:54.465Z,6.60
2023-05-22T11:50:43.844Z,6.82
2023-05-22T11:53:09.070Z,7.13
2023-05-22T11:55:36.192Z,6.57
2023-05-22T11:58:03.351Z,6.50
2023-05-22T12:00:32.040Z,5.78
2023-05-22T12:02:59.457Z,5.90
2023-05-22T12:05:26.722Z,6.70
2023-05-22T12:07:53.862Z,5.97
2023-05-22T12:10:20.887Z,5.07
2023-05-22T12:12:48.371Z,5.93
2023-05-22T12:15:22.541Z,5.70
2023-05-22T12:17:49.478Z,5.05
2023-05-22T12:20:16.594Z,5.38
2023-05-22T12:22:44.215Z,6.00
2023-05-22T12:25:20.672Z,6.35
2023-05-22T12:27:47.961Z,6.88
2023-05-22T12:30:15.539Z,6.38
2023-05-22T12:32:47.937Z,6.30
2023-05-22T12:35:16.990Z,5.73
2023-05-22T12:37:51.079Z,5.35
2023-05-22T12:40:18.587Z,5.68
2023-05-22T12:42:46.090Z,5.88
2023-05-22T12:45:14.091Z,5.60
2023-05-22T12:47:41.066Z,5.63
2023-05-22T12:50:08.693Z,6.13
2023-05-22T12:52:36.222Z,6.22
2023-05-22T12:55:03.591Z,6.05
2023-05-22T12:57:30.692Z,6.07
2023-05-22T12:59:57.636Z,6.43
2023-05-22T13:02:24.738Z,6.05
2023-05-22T13:04:51.788Z,6.80
2023-05-22T13:07:18.696Z,7.35
2023-05-22T13:09:45.633Z,7.90
2023-05-22T13:12:12.841Z,7.70
2023-05-22T13:14:40.696Z,9.30
2023-05-22T13:17:08.021Z,7.85
2023-05-22T13:19:35.214Z,7.30
2023-05-22T13:22:02.315Z,7.93
2023-05-22T13:24:29.209Z,7.90
2023-05-22T13:26:56.053Z,8.10
2023-05-22T13:29:23.016Z,7.40
2023-05-22T13:31:49.932Z,7.85
2023-05-22T13:34:17.010Z,6.95
2023-05-22T13:36:44.136Z,6.07
2023-05-22T13:39:11.105Z,6.65
2023-05-22T13:41:37.985Z,6.18
2023-05-22T13:44:04.891Z,6.95
2023-05-22T13:46:31.885Z,6.38
2023-05-22T13:48:59.916Z,6.10
2023-05-22T13:51:26.933Z,5.97
2023-05-22T13:53:54.090Z,5.35
2023-05-22T13:56:23.160Z,5.75
2023-05-22T13:58:50.020Z,5.93
2023-05-22T14:01:17.022Z,5.20
2023-05-22T14:03:44.914Z,5.07
2023-05-22T14:06:11.944Z,5.53
2023-05-22T14:08:39.031Z,5.15
2023-05-22T14:11:06.244Z,4.88
2023-05-22T14:13:33.163Z,5.53
2023-05-22T14:16:00.237Z,4.43
2023-05-22T14:18:27.278Z,5.20
2023-05-22T14:20:54.295Z,4.90
2023-05-22T14:23:22.627Z,4.93
2023-05-22T14:25:49.566Z,4.20
2023-05-22T14:28:16.681Z,4.45
2023-05-22T14:30:43.716Z,4.68
2023-05-22T14:33:11.656Z,4.75
2023-05-22T14:35:38.958Z,4.40
2023-05-22T14:38:06.401Z,4.80
2023-05-22T14:40:33.421Z,4.72
2023-05-22T14:43:00.493Z,4.40
2023-05-22T14:45:27.593Z,4.28
2023-05-22T14:47:55.305Z,4.53
2023-05-22T14:50:22.367Z,4.50
2023-05-22T14:52:49.920Z,4.75
2023-05-22T14:55:17.975Z,4.53
2023-05-22T14:57:45.121Z,4.85
2023-05-22T15:00:13.014Z,3.90
2023-05-22T15:02:41.066Z,4.73
2023-05-22T15:05:08.694Z,3.30
2023-05-22T15:07:43.803Z,4.10
2023-05-22T15:10:13.082Z,5.05
2023-05-22T15:12:40.205Z,4.35
2023-05-22T15:15:07.901Z,4.60
2023-05-22T15:17:34.962Z,3.70
2023-05-22T15:20:02.164Z,3.38
2023-05-22T15:22:29.102Z,3.50
2023-05-22T15:25:11.982Z,3.92
2023-05-22T15:27:40.050Z,3.07
2023-05-22T15:30:09.927Z,3.00
2023-05-22T15:32:37.669Z,2.78
2023-05-22T15:35:06.192Z,2.88
2023-05-22T15:37:34.295Z,3.13
2023-05-22T15:40:02.024Z,2.70
2023-05-22T15:42:29.564Z,2.45
2023-05-22T15:44:58.481Z,2.50
2023-05-22T15:47:25.972Z,2.30
2023-05-22T15:49:52.942Z,2.22
2023-05-22T15:52:21.247Z,2.37
2023-05-22T15:54:48.275Z,2.00
2023-05-22T15:57:15.203Z,2.10
2023-05-22T15:59:42.305Z,2.05
2023-05-22T16:02:09.314Z,1.63
2023-05-22T16:04:36.344Z,1.77
2023-05-22T16:07:05.548Z,1.52
2023-05-22T16:09:32.845Z,1.60
2023-05-22T16:11:59.912Z,2.00
2023-05-22T16:14:26.785Z,2.40
2023-05-22T16:16:53.725Z,1.80
2023-05-22T16:19:20.573Z,2.00
2023-05-22T16:21:47.474Z,2.40
2023-05-22T16:24:14.270Z,2.05
2023-05-22T16:26:41.293Z,2.72
2023-05-22T16:29:11.051Z,2.40
2023-05-22T16:31:38.010Z,2.28
2023-05-22T16:34:05.496Z,2.33
2023-05-22T16:36:32.757Z,2.35
2023-05-22T16:38:59.707Z,2.83
2023-05-22T16:41:26.972Z,2.47
2023-05-22T16:43:54.072Z,2.38
2023-05-22T16:46:21.207Z,2.45
2023-05-22T16:48:48.698Z,3.10
2023-05-22T16:51:15.722Z,2.33
2023-05-22T16:53:42.672Z,2.30
2023-05-22T16:56:09.614Z,2.22
2023-05-22T16:58:36.838Z,2.20
2023-05-22T17:01:04.004Z,2.40
2023-05-22T17:03:30.953Z,2.70
2023-05-22T17:05:57.989Z,2.43
2023-05-22T17:08:28.365Z,2.13
2023-05-22T17:10:56.679Z,2.55
2023-05-22T17:13:23.981Z,2.70
2023-05-22T17:15:51.661Z,2.58
2023-05-22T17:18:22.326Z,2.80
2023-05-22T17:20:50.391Z,2.95
2023-05-22T17:23:17.810Z,2.55
2023-05-22T17:25:46.950Z,2.88
2023-05-22T17:28:14.830Z,3.05
2023-05-22T17:30:43.027Z,3.43
2023-05-22T17:33:11.184Z,3.13
2023-05-22T17:35:38.334Z,3.10
2023-05-22T17:38:07.273Z,3.10
2023-05-22T17:40:43.724Z,3.67
2023-05-22T17:43:12.299Z,3.07
2023-05-22T17:45:40.208Z,2.72
2023-05-22T17:48:08.247Z,3.92
2023-05-22T17:50:35.404Z,3.53
2023-05-22T17:53:02.304Z,3.88
2023-05-22T17:55:29.211Z,3.00
2023-05-22T17:57:56.337Z,3.10
2023-05-22T18:00:23.424Z,3.55
2023-05-22T18:02:50.915Z,3.72
2023-05-22T18:05:17.966Z,3.45
2023-05-22T18:07:44.886Z,4.10
2023-05-22T18:10:12.006Z,4.28
2023-05-22T18:12:39.199Z,3.60
2023-05-22T18:15:09.768Z,3.63
2023-05-22T18:17:37.086Z,3.83
2023-05-22T18:20:07.691Z,4.17
2023-05-22T18:22:37.274Z,3.83
2023-05-22T18:25:05.140Z,4.00
2023-05-22T18:27:33.071Z,4.10
2023-05-22T18:30:00.023Z,4.50
2023-05-22T18:32:26.997Z,4.63
2023-05-22T18:34:53.921Z,4.35
2023-05-22T18:37:21.066Z,4.60
2023-05-22T18:39:48.282Z,4.93
2023-05-22T18:42:15.164Z,4.07
2023-05-22T18:44:42.246Z,4.27
2023-05-22T18:47:09.198Z,3.80
2023-05-22T18:49:36.378Z,4.43
2023-05-22T18:52:03.488Z,4.15
2023-05-22T18:54:30.673Z,3.58
2023-05-22T18:56:57.610Z,3.83
2023-05-22T18:59:24.549Z,3.38
2023-05-22T19:01:51.373Z,4.03
2023-05-22T19:04:18.372Z,4.32
2023-05-22T19:06:45.975Z,4.28
2023-05-22T19:09:13.764Z,4.33
2023-05-22T19:11:40.725Z,3.88
2023-05-22T19:14:07.597Z,4.30
2023-05-22T19:16:34.535Z,4.68
2023-05-22T19:19:01.721Z,4.18
2023-05-22T19:21:28.684Z,4.30
2023-05-22T19:23:55.679Z,3.78
2023-05-22T19:26:22.682Z,4.55
2023-05-22T19:28:49.578Z,4.07
2023-05-22T19:31:16.793Z,3.70
2023-05-22T19:33:43.858Z,5.00
2023-05-22T19:36:11.120Z,4.68
2023-05-22T19:38:38.038Z,4.18
2023-05-22T19:41:05.001Z,4.35
2023-05-22T19:43:32.119Z,4.28
2023-05-22T19:45:59.125Z,5.10
2023-05-22T19:48:27.152Z,4.72
2023-05-22T19:50:54.079Z,4.10
2023-05-22T19:53:21.413Z,5.05
2023-05-22T19:55:48.796Z,4.60
2023-05-22T19:58:15.696Z,4.40
2023-05-22T20:00:42.986Z,4.88
2023-05-22T20:03:10.405Z,5.18
2023-05-22T20:05:37.581Z,6.38
2023-05-22T20:08:04.708Z,4.75
2023-05-22T20:10:32.850Z,5.80
2023-05-22T20:13:00.316Z,6.30
2023-05-22T20:15:27.357Z,6.63
2023-05-22T20:17:54.603Z,5.65
2023-05-22T20:20:24.274Z,5.47
2023-05-22T20:22:52.930Z,5.83
2023-05-22T20:25:21.544Z,5.85
2023-05-22T20:27:48.557Z,5.68
2023-05-22T20:30:15.861Z,5.93
2023-05-22T20:32:43.443Z,6.43
2023-05-22T20:35:11.145Z,6.60
2023-05-22T20:37:38.567Z,5.88
2023-05-22T20:40:06.181Z,6.53
2023-05-22T20:42:33.032Z,6.70
2023-05-22T20:44:59.977Z,5.50
2023-05-22T20:47:26.927Z,5.37
2023-05-22T20:49:54.381Z,5.32
2023-05-22T20:52:21.360Z,5.07
2023-05-22T20:54:48.363Z,4.60
2023-05-22T20:57:15.303Z,4.82
2023-05-22T20:59:42.151Z,4.20
2023-05-22T21:02:09.085Z,3.72
2023-05-22T21:04:35.935Z,4.47
2023-05-22T21:07:03.710Z,3.20
2023-05-22T21:09:30.823Z,3.10
2023-05-22T21:11:57.716Z,3.43
2023-05-22T21:14:24.545Z,3.00
2023-05-22T21:16:51.588Z,3.00
2023-05-22T21:19:18.451Z,3.58
2023-05-22T21:21:45.423Z,3.22
2023-05-22T21:24:12.250Z,3.10
2023-05-22T21:26:39.257Z,2.55
2023-05-22T21:29:06.162Z,2.80
2023-05-22T21:31:35.397Z,2.55
2023-05-22T21:34:02.704Z,3.17
2023-05-22T21:36:29.611Z,2.63
2023-05-22T21:38:57.819Z,3.55
2023-05-22T21:41:24.635Z,2.67
2023-05-22T21:43:51.532Z,2.88
2023-05-22T21:46:18.753Z,2.92
2023-05-22T21:48:46.577Z,2.90
2023-05-22T21:51:13.671Z,2.90
2023-05-22T21:53:40.913Z,3.30
2023-05-22T21:56:08.819Z,2.40
2023-05-22T21:58:35.756Z,2.78
2023-05-22T22:01:02.873Z,3.17
2023-05-22T22:03:29.846Z,3.00
2023-05-22T22:05:56.726Z,3.47
2023-05-22T22:08:23.727Z,3.38
2023-05-22T22:10:51.034Z,3.72
2023-05-22T22:13:17.840Z,3.20
2023-05-22T22:15:44.677Z,3.58
2023-05-22T22:18:15.082Z,3.20
2023-05-22T22:20:45.297Z,3.40
2023-05-22T22:23:12.842Z,3.97
2023-05-22T22:25:39.768Z,3.37
2023-05-22T22:28:07.569Z,3.33
2023-05-22T22:30:35.556Z,3.53
2023-05-22T22:33:02.620Z,4.25
2023-05-22T22:35:29.715Z,4.10
2023-05-22T22:37:56.943Z,4.00
2023-05-22T22:40:25.982Z,4.10
2023-05-22T22:42:53.616Z,3.90
2023-05-22T22:45:20.881Z,3.65
2023-05-22T22:47:48.413Z,4.10
2023-05-22T22:50:15.407Z,3.90
2023-05-22T22:52:45.707Z,4.40
2023-05-22T22:55:13.612Z,4.65
2023-05-22T22:57:43.493Z,4.10
2023-05-22T23:00:13.456Z,5.28
2023-05-22T23:02:40.796Z,4.43
2023-05-22T23:05:08.213Z,4.35
2023-05-22T23:07:35.242Z,5.07
2023-05-22T23:10:02.114Z,4.80
2023-05-22T23:12:28.979Z,5.13
2023-05-22T23:14:55.921Z,4.20
2023-05-22T23:17:22.772Z,4.80
2023-05-22T23:19:49.657Z,5.10
2023-05-22T23:22:16.621Z,5.22
2023-05-22T23:24:43.463Z,4.70
2023-05-22T23:27:10.303Z,5.60
2023-05-22T23:29:37.126Z,4.25
2023-05-22T23:32:04.008Z,5.30
2023-05-22T23:34:30.928Z,5.07
2023-05-22T23:36:57.735Z,5.72
2023-05-22T23:39:24.657Z,4.73
2023-05-22T23:41:54.196Z,5.68
2023-05-22T23:44:21.779Z,6.18
2023-05-22T23:46:50.183Z,6.40
2023-05-22T23:49:17.086Z,6.05
2023-05-22T23:51:43.893Z,5.10
2023-05-22T23:54:11.447Z,5.15
2023-05-22T23:56:38.285Z,5.55
2023-05-22T23:59:05.333Z,4.50
